createdAt,value
2022-12-12T00:00:41.658Z,2.10
2022-12-12T00:03:08.302Z,2.05
2022-12-12T00:05:34.937Z,2.10
2022-12-12T00:08:01.593Z,2.08
2022-12-12T00:10:28.409Z,2.10
2022-12-12T00:12:55.115Z,1.96
2022-12-12T00:15:21.738Z,1.86
2022-12-12T00:17:48.490Z,1.85
2022-12-12T00:20:15.316Z,1.89
2022-12-12T00:22:41.843Z,1.96
2022-12-12T00:25:08.946Z,1.93
2022-12-12T00:27:35.514Z,1.83
2022-12-12T00:30:02.261Z,1.77
2022-12-12T00:32:28.776Z,1.72
2022-12-12T00:34:55.257Z,1.77
2022-12-12T00:37:21.819Z,1.74
2022-12-12T00:39:48.795Z,1.76
2022-12-12T00:42:15.512Z,1.82
2022-12-12T00:44:42.016Z,1.89
2022-12-12T00:47:08.565Z,1.95
2022-12-12T00:49:35.252Z,2.02
2022-12-12T00:52:02.209Z,2.06
2022-12-12T00:54:28.756Z,2.07
2022-12-12T00:56:55.239Z,2.12
2022-12-12T00:59:22.902Z,2.17
2022-12-12T01:01:49.638Z,2.23
2022-12-12T01:04:16.334Z,2.24
2022-12-12T01:06:42.837Z,2.26
2022-12-12T01:09:09.414Z,2.25
2022-12-12T01:11:36.017Z,2.19
2022-12-12T01:14:02.672Z,2.21
2022-12-12T01:16:30.177Z,2.20
2022-12-12T01:18:57.047Z,2.10
2022-12-12T01:21:24.500Z,2.03
2022-12-12T01:23:51.144Z,2.00
2022-12-12T01:26:20.814Z,1.97
2022-12-12T01:28:47.947Z,1.92
2022-12-12T01:31:15.360Z,1.89
2022-12-12T01:33:46.321Z,1.85
2022-12-12T01:36:20.201Z,1.75
2022-12-12T01:38:48.330Z,1.79
2022-12-12T01:41:16.090Z,1.74
2022-12-12T01:43:43.462Z,1.68
2022-12-12T01:46:22.330Z,1.73
2022-12-12T01:48:53.850Z,1.71
2022-12-12T01:51:24.247Z,1.74
2022-12-12T01:53:58.041Z,1.65
2022-12-12T01:56:25.607Z,1.60
2022-12-12T01:58:53.871Z,1.62
2022-12-12T02:01:22.131Z,1.60
2022-12-12T02:03:49.735Z,1.61
2022-12-12T02:06:22.392Z,1.61
2022-12-12T02:08:51.234Z,1.62
2022-12-12T02:11:17.852Z,1.82
2022-12-12T02:13:45.058Z,1.87
2022-12-12T02:16:33.430Z,2.00
2022-12-12T02:19:24.795Z,1.80
2022-12-12T02:22:10.105Z,1.71
2022-12-12T02:24:54.686Z,1.55
2022-12-12T02:27:49.846Z,1.49
2022-12-12T02:30:42.328Z,1.45
2022-12-12T02:34:02.424Z,1.39
2022-12-12T02:36:48.052Z,1.38
2022-12-12T02:39:28.384Z,1.45
2022-12-12T02:42:10.787Z,1.58
2022-12-12T02:44:45.081Z,1.55
2022-12-12T02:47:19.613Z,1.59
2022-12-12T02:50:01.462Z,1.57
2022-12-12T02:52:28.948Z,1.64
2022-12-12T02:54:55.479Z,1.56
2022-12-12T02:57:24.720Z,1.51
2022-12-12T03:00:05.581Z,1.46
2022-12-12T03:02:45.898Z,1.44
2022-12-12T03:05:58.339Z,1.43
2022-12-12T03:08:33.648Z,1.39
2022-12-12T03:11:04.649Z,1.33
2022-12-12T03:13:45.685Z,1.51
2022-12-12T03:16:21.359Z,1.44
2022-12-12T03:18:53.780Z,1.44
2022-12-12T03:21:35.526Z,1.41
2022-12-12T03:24:22.804Z,1.41
2022-12-12T03:27:03.025Z,1.40
2022-12-12T03:29:36.405Z,1.34
2022-12-12T03:32:13.381Z,1.29
2022-12-12T03:34:46.042Z,1.34
2022-12-12T03:37:20.817Z,1.29
2022-12-12T03:39:52.892Z,1.16
2022-12-12T03:42:24.789Z,1.32
2022-12-12T03:45:06.282Z,1.32
2022-12-12T03:47:39.693Z,1.16
2022-12-12T03:50:19.791Z,1.21
2022-12-12T03:53:19.817Z,1.11
2022-12-12T03:55:52.767Z,1.06
2022-12-12T03:58:25.245Z,0.99
2022-12-12T04:00:56.606Z,1.06
2022-12-12T04:03:32.258Z,0.96
2022-12-12T04:06:28.149Z,0.94
2022-12-12T04:09:25.968Z,0.86
2022-12-12T04:12:36.175Z,0.76
2022-12-12T04:15:21.207Z,0.71
2022-12-12T04:17:56.780Z,0.65
2022-12-12T04:20:54.904Z,0.61
2022-12-12T04:23:50.520Z,0.71
2022-12-12T04:26:39.457Z,0.78
2022-12-12T04:29:27.622Z,0.75
2022-12-12T04:32:05.791Z,0.67
2022-12-12T04:34:50.337Z,0.63
2022-12-12T04:37:22.746Z,0.61
2022-12-12T04:39:52.445Z,0.58
2022-12-12T04:42:22.460Z,0.50
2022-12-12T04:44:52.405Z,0.50
2022-12-12T04:47:20.457Z,0.57
2022-12-12T04:49:50.588Z,0.56
2022-12-12T04:52:21.052Z,0.51
2022-12-12T04:54:47.586Z,0.46
2022-12-12T04:57:22.070Z,0.35
2022-12-12T04:59:49.006Z,0.29
2022-12-12T05:02:31.222Z,0.31
2022-12-12T05:05:02.729Z,0.33
2022-12-12T05:07:37.906Z,0.30
2022-12-12T05:10:10.802Z,0.29
2022-12-12T05:12:43.742Z,0.49
2022-12-12T05:15:11.222Z,0.60
2022-12-12T05:17:44.699Z,0.61
2022-12-12T05:20:11.627Z,0.46
2022-12-12T05:22:38.124Z,0.50
2022-12-12T05:25:05.627Z,0.37
2022-12-12T05:27:32.174Z,0.38
2022-12-12T05:29:58.730Z,0.53
2022-12-12T05:32:25.296Z,0.53
2022-12-12T05:34:52.009Z,0.54
2022-12-12T05:37:18.491Z,0.51
2022-12-12T05:39:45.019Z,0.54
2022-12-12T05:42:11.532Z,0.53
2022-12-12T05:44:38.078Z,0.58
2022-12-12T05:47:04.677Z,0.58
2022-12-12T05:49:31.190Z,0.55
2022-12-12T05:51:57.727Z,0.49
2022-12-12T05:54:24.258Z,0.47
2022-12-12T05:56:50.764Z,0.53
2022-12-12T05:59:17.273Z,0.66
2022-12-12T06:01:43.757Z,0.53
2022-12-12T06:04:10.316Z,0.68
2022-12-12T06:06:37.402Z,0.74
2022-12-12T06:09:03.889Z,0.73
2022-12-12T06:11:30.373Z,0.60
2022-12-12T06:13:56.918Z,0.46
2022-12-12T06:16:23.484Z,0.47
2022-12-12T06:18:54.882Z,0.52
2022-12-12T06:21:22.015Z,0.50
2022-12-12T06:23:49.473Z,0.60
2022-12-12T06:26:19.000Z,0.65
2022-12-12T06:28:46.828Z,0.63
2022-12-12T06:31:14.641Z,0.78
2022-12-12T06:33:42.836Z,0.69
2022-12-12T06:36:13.969Z,0.61
2022-12-12T06:38:41.088Z,0.63
2022-12-12T06:41:13.300Z,0.68
2022-12-12T06:43:41.377Z,0.66
2022-12-12T06:46:15.541Z,0.73
2022-12-12T06:48:43.307Z,0.70
2022-12-12T06:51:13.371Z,0.79
2022-12-12T06:53:39.857Z,0.88
2022-12-12T06:56:08.885Z,0.82
2022-12-12T06:58:36.127Z,0.82
2022-12-12T07:01:03.797Z,0.70
2022-12-12T07:03:30.387Z,0.66
2022-12-12T07:05:56.930Z,0.57
2022-12-12T07:08:23.640Z,0.67
2022-12-12T07:10:50.182Z,0.83
2022-12-12T07:13:16.849Z,0.81
2022-12-12T07:15:45.168Z,0.81
2022-12-12T07:18:12.874Z,0.70
2022-12-12T07:20:44.816Z,0.63
2022-12-12T07:23:13.113Z,0.65
2022-12-12T07:25:41.770Z,0.63
2022-12-12T07:28:10.315Z,0.77
2022-12-12T07:30:43.839Z,0.77
2022-12-12T07:33:12.320Z,0.76
2022-12-12T07:35:39.045Z,0.78
2022-12-12T07:38:06.062Z,0.69
2022-12-12T07:40:33.773Z,0.62
2022-12-12T07:43:01.055Z,0.60
2022-12-12T07:45:28.248Z,0.66
2022-12-12T07:47:55.023Z,0.68
2022-12-12T07:50:22.060Z,0.66
2022-12-12T07:52:48.772Z,0.74
2022-12-12T07:55:15.905Z,0.79
2022-12-12T07:57:42.724Z,0.82
2022-12-12T08:00:13.758Z,0.73
2022-12-12T08:02:40.461Z,0.73
2022-12-12T08:05:07.817Z,0.69
2022-12-12T08:07:34.344Z,0.86
2022-12-12T08:10:00.883Z,0.89
2022-12-12T08:12:31.232Z,0.90
2022-12-12T08:14:57.835Z,1.00
2022-12-12T08:17:24.941Z,1.04
2022-12-12T08:19:52.129Z,1.11
2022-12-12T08:22:20.297Z,1.14
2022-12-12T08:24:49.810Z,1.17
2022-12-12T08:27:16.833Z,1.23
2022-12-12T08:29:44.829Z,1.37
2022-12-12T08:32:12.100Z,1.38
2022-12-12T08:34:38.596Z,1.29
2022-12-12T08:37:05.260Z,1.27
2022-12-12T08:39:31.788Z,1.26
2022-12-12T08:41:58.918Z,1.26
2022-12-12T08:44:25.464Z,1.23
2022-12-12T08:46:52.096Z,1.25
2022-12-12T08:49:18.783Z,1.32
2022-12-12T08:51:45.493Z,1.37
2022-12-12T08:54:13.000Z,1.52
2022-12-12T08:56:40.389Z,1.50
2022-12-12T08:59:07.024Z,1.54
2022-12-12T09:01:33.623Z,1.57
2022-12-12T09:04:00.230Z,1.60
2022-12-12T09:06:27.149Z,1.62
2022-12-12T09:08:55.094Z,1.68
2022-12-12T09:11:21.663Z,1.74
2022-12-12T09:13:48.843Z,1.78
2022-12-12T09:16:15.481Z,1.91
2022-12-12T09:18:48.558Z,1.90
2022-12-12T09:21:16.248Z,1.94
2022-12-12T09:23:42.896Z,2.13
2022-12-12T09:26:10.357Z,2.03
2022-12-12T09:28:37.122Z,2.12
2022-12-12T09:31:07.041Z,2.19
2022-12-12T09:33:33.700Z,2.31
2022-12-12T09:36:02.357Z,2.26
2022-12-12T09:38:28.972Z,2.42
2022-12-12T09:41:20.266Z,2.38
2022-12-12T09:43:51.614Z,2.51
2022-12-12T09:46:34.850Z,2.67
2022-12-12T09:49:31.840Z,2.83
2022-12-12T09:52:00.075Z,2.88
2022-12-12T09:54:27.076Z,2.80
2022-12-12T09:57:12.102Z,2.85
2022-12-12T09:59:47.432Z,3.08
2022-12-12T10:02:38.417Z,2.84
2022-12-12T10:05:17.594Z,2.94
2022-12-12T10:07:54.367Z,3.01
2022-12-12T10:10:46.901Z,3.13
2022-12-12T10:13:20.992Z,3.12
2022-12-12T10:16:02.938Z,3.24
2022-12-12T10:18:47.269Z,3.28
2022-12-12T10:21:22.459Z,3.38
2022-12-12T10:23:51.774Z,3.28
2022-12-12T10:26:25.060Z,3.33
2022-12-12T10:28:57.372Z,3.31
2022-12-12T10:31:32.910Z,3.25
2022-12-12T10:34:33.052Z,3.22
2022-12-12T10:36:59.510Z,3.28
2022-12-12T10:39:35.141Z,3.39
2022-12-12T10:42:03.437Z,3.46
2022-12-12T10:45:00.124Z,3.52
2022-12-12T10:47:26.718Z,3.48
2022-12-12T10:50:17.133Z,3.53
2022-12-12T10:52:43.621Z,3.53
2022-12-12T10:55:51.693Z,3.61
2022-12-12T10:58:18.387Z,3.69
2022-12-12T11:00:48.364Z,3.68
2022-12-12T11:03:35.634Z,3.69
2022-12-12T11:06:11.365Z,3.59
2022-12-12T11:08:38.709Z,3.68
2022-12-12T11:11:28.778Z,3.66
2022-12-12T11:13:58.184Z,3.74
2022-12-12T11:16:28.904Z,3.80
2022-12-12T11:19:16.885Z,3.94
2022-12-12T11:21:44.818Z,3.92
2022-12-12T11:24:23.957Z,4.00
2022-12-12T11:27:00.444Z,4.01
2022-12-12T11:29:48.269Z,4.06
2022-12-12T11:32:19.130Z,4.10
2022-12-12T11:34:58.280Z,4.20
2022-12-12T11:37:28.985Z,4.29
2022-12-12T11:39:57.303Z,4.39
2022-12-12T11:42:30.132Z,4.31
2022-12-12T11:45:00.674Z,4.32
2022-12-12T11:47:38.739Z,4.40
2022-12-12T11:50:18.413Z,4.51
2022-12-12T11:52:45.369Z,4.56
2022-12-12T11:55:17.819Z,4.53
2022-12-12T11:57:50.529Z,4.67
2022-12-12T12:00:20.622Z,4.79
2022-12-12T12:03:08.993Z,4.81
2022-12-12T12:05:41.343Z,4.73
2022-12-12T12:08:35.432Z,4.72
2022-12-12T12:11:02.095Z,4.74
2022-12-12T12:14:11.189Z,4.70
2022-12-12T12:16:46.783Z,4.84
2022-12-12T12:19:46.688Z,4.85
2022-12-12T12:22:31.490Z,4.94
2022-12-12T12:25:33.109Z,4.85
2022-12-12T12:28:18.326Z,4.93
2022-12-12T12:31:06.000Z,4.98
2022-12-12T12:33:32.563Z,4.93
2022-12-12T12:36:24.826Z,4.98
2022-12-12T12:39:18.772Z,5.10
2022-12-12T12:42:06.159Z,5.04
2022-12-12T12:44:55.092Z,5.09
2022-12-12T12:47:54.583Z,5.16
2022-12-12T12:50:38.271Z,5.16
2022-12-12T12:53:07.859Z,5.03
2022-12-12T12:55:43.986Z,4.88
2022-12-12T12:58:28.983Z,4.91
2022-12-12T13:01:02.725Z,4.97
2022-12-12T13:03:37.975Z,4.95
2022-12-12T13:06:12.900Z,4.91
2022-12-12T13:08:57.977Z,4.86
2022-12-12T13:11:32.563Z,4.79
2022-12-12T13:14:16.677Z,4.91
2022-12-12T13:16:44.182Z,4.81
2022-12-12T13:19:41.774Z,4.86
2022-12-12T13:22:18.290Z,4.81
2022-12-12T13:25:00.138Z,4.81
2022-12-12T13:27:33.146Z,4.84
2022-12-12T13:30:12.548Z,4.90
2022-12-12T13:32:54.381Z,4.84
2022-12-12T13:35:35.375Z,4.73
2022-12-12T13:38:03.124Z,4.76
2022-12-12T13:40:37.476Z,4.74
2022-12-12T13:43:10.085Z,4.72
2022-12-12T13:45:46.005Z,4.69
2022-12-12T13:48:27.835Z,4.76
2022-12-12T13:51:28.430Z,4.71
2022-12-12T13:54:12.266Z,4.73
2022-12-12T13:56:57.556Z,4.71
2022-12-12T13:59:27.056Z,4.74
2022-12-12T14:02:28.535Z,4.74
2022-12-12T14:05:26.274Z,4.95
2022-12-12T14:07:59.369Z,4.86
2022-12-12T14:10:36.149Z,4.83
2022-12-12T14:13:21.470Z,4.83
2022-12-12T14:15:55.680Z,4.82
2022-12-12T14:18:29.890Z,4.79
2022-12-12T14:21:00.336Z,4.76
2022-12-12T14:23:34.527Z,4.76
2022-12-12T14:26:01.918Z,4.82
2022-12-12T14:28:31.392Z,4.81
2022-12-12T14:31:14.823Z,4.76
2022-12-12T14:33:50.468Z,4.77
2022-12-12T14:36:35.612Z,4.90
2022-12-12T14:39:10.991Z,4.78
2022-12-12T14:41:39.984Z,4.70
2022-12-12T14:44:38.017Z,4.88
2022-12-12T14:47:10.027Z,4.69
2022-12-12T14:49:36.676Z,4.64
2022-12-12T14:52:03.941Z,4.56
2022-12-12T14:54:31.033Z,4.56
2022-12-12T14:57:01.580Z,4.57
2022-12-12T14:59:34.060Z,4.66
2022-12-12T15:02:21.173Z,4.78
2022-12-12T15:04:58.062Z,4.67
2022-12-12T15:07:33.120Z,4.70
2022-12-12T15:09:59.879Z,4.62
2022-12-12T15:12:34.693Z,4.55
2022-12-12T15:15:01.488Z,4.55
2022-12-12T15:17:36.427Z,4.52
2022-12-12T15:20:15.089Z,4.56
2022-12-12T15:22:57.548Z,4.69
2022-12-12T15:25:27.082Z,4.63
2022-12-12T15:27:56.555Z,4.66
2022-12-12T15:30:39.539Z,4.68
2022-12-12T15:33:26.594Z,4.72
2022-12-12T15:35:57.914Z,4.71
2022-12-12T15:38:28.198Z,4.63
2022-12-12T15:40:58.775Z,4.73
2022-12-12T15:43:28.750Z,4.79
2022-12-12T15:45:56.904Z,4.64
2022-12-12T15:48:25.707Z,4.73
2022-12-12T15:50:59.214Z,4.79
2022-12-12T15:53:27.938Z,4.79
2022-12-12T15:56:06.456Z,4.94
2022-12-12T15:58:40.341Z,5.00
2022-12-12T16:01:20.097Z,4.97
2022-12-12T16:04:03.583Z,5.11
2022-12-12T16:06:33.159Z,5.17
2022-12-12T16:09:01.604Z,5.25
2022-12-12T16:11:31.831Z,5.34
2022-12-12T16:13:59.543Z,5.43
2022-12-12T16:16:43.661Z,5.48
2022-12-12T16:19:27.695Z,5.49
2022-12-12T16:21:55.454Z,5.59
2022-12-12T16:24:26.324Z,5.73
2022-12-12T16:27:00.696Z,5.84
2022-12-12T16:29:27.214Z,5.66
2022-12-12T16:31:56.055Z,5.72
2022-12-12T16:34:22.999Z,5.77
2022-12-12T16:36:49.538Z,5.70
2022-12-12T16:39:17.053Z,5.77
2022-12-12T16:41:43.686Z,5.72
2022-12-12T16:44:10.709Z,5.65
2022-12-12T16:46:37.296Z,5.71
2022-12-12T16:49:05.077Z,5.77
2022-12-12T16:51:35.171Z,5.69
2022-12-12T16:54:01.819Z,5.70
2022-12-12T16:56:28.382Z,5.70
2022-12-12T16:58:56.143Z,5.68
2022-12-12T17:01:23.008Z,5.69
2022-12-12T17:03:49.631Z,5.69
2022-12-12T17:06:16.481Z,5.83
2022-12-12T17:08:43.032Z,5.67
2022-12-12T17:11:11.174Z,5.71
2022-12-12T17:13:41.134Z,5.75
2022-12-12T17:16:07.789Z,5.77
2022-12-12T17:18:34.348Z,5.74
2022-12-12T17:21:00.829Z,5.71
2022-12-12T17:23:27.492Z,5.86
2022-12-12T17:26:00.658Z,5.91
2022-12-12T17:28:30.887Z,5.79
2022-12-12T17:30:57.449Z,5.80
2022-12-12T17:33:24.025Z,5.87
2022-12-12T17:36:02.389Z,5.82
2022-12-12T17:38:30.526Z,5.87
2022-12-12T17:40:58.179Z,5.86
2022-12-12T17:43:25.176Z,5.94
2022-12-12T17:46:02.642Z,5.93
2022-12-12T17:48:31.486Z,5.81
2022-12-12T17:50:59.693Z,5.91
2022-12-12T17:53:27.525Z,5.94
2022-12-12T17:56:01.744Z,6.00
2022-12-12T17:58:40.056Z,6.01
2022-12-12T18:01:21.831Z,6.05
2022-12-12T18:03:49.132Z,6.06
2022-12-12T18:06:16.947Z,6.04
2022-12-12T18:08:45.222Z,6.10
2022-12-12T18:11:14.983Z,6.14
2022-12-12T18:13:42.309Z,6.05
2022-12-12T18:16:11.548Z,6.11
2022-12-12T18:18:38.805Z,6.07
2022-12-12T18:21:10.593Z,6.14
2022-12-12T18:23:40.005Z,6.05
2022-12-12T18:26:14.891Z,6.05
2022-12-12T18:28:45.270Z,6.00
2022-12-12T18:31:11.748Z,5.99
2022-12-12T18:33:38.520Z,6.00
2022-12-12T18:36:10.551Z,6.07
2022-12-12T18:38:37.174Z,6.03
2022-12-12T18:41:04.498Z,6.02
2022-12-12T18:43:31.334Z,5.95
2022-12-12T18:46:03.157Z,5.88
2022-12-12T18:48:30.005Z,5.95
2022-12-12T18:51:07.807Z,6.06
2022-12-12T18:53:35.120Z,6.11
2022-12-12T18:56:06.828Z,5.87
2022-12-12T18:58:34.359Z,5.98
2022-12-12T19:01:08.334Z,5.91
2022-12-12T19:03:36.406Z,5.85
2022-12-12T19:06:14.121Z,5.93
2022-12-12T19:08:42.271Z,5.82
2022-12-12T19:11:09.763Z,5.82
2022-12-12T19:13:36.800Z,5.81
2022-12-12T19:16:08.235Z,5.83
2022-12-12T19:18:35.284Z,5.83
2022-12-12T19:21:12.060Z,5.64
2022-12-12T19:23:39.098Z,5.57
2022-12-12T19:26:07.005Z,5.53
2022-12-12T19:28:33.791Z,5.57
2022-12-12T19:31:00.715Z,5.57
2022-12-12T19:33:27.372Z,5.53
2022-12-12T19:35:53.896Z,5.41
2022-12-12T19:38:24.768Z,5.52
2022-12-12T19:40:51.809Z,5.38
2022-12-12T19:43:18.313Z,5.40
2022-12-12T19:45:44.917Z,5.40
2022-12-12T19:48:11.548Z,5.30
2022-12-12T19:50:38.271Z,5.30
2022-12-12T19:53:04.869Z,5.27
2022-12-12T19:55:31.651Z,5.29
2022-12-12T19:57:58.324Z,5.38
2022-12-12T20:00:26.024Z,5.32
2022-12-12T20:02:52.651Z,5.42
2022-12-12T20:05:19.173Z,5.42
2022-12-12T20:07:45.734Z,5.32
2022-12-12T20:10:13.172Z,5.31
2022-12-12T20:12:46.193Z,5.35
2022-12-12T20:15:18.530Z,5.21
2022-12-12T20:17:45.075Z,5.27
2022-12-12T20:20:11.840Z,5.26
2022-12-12T20:22:38.865Z,5.25
2022-12-12T20:25:05.880Z,5.16
2022-12-12T20:27:32.491Z,5.27
2022-12-12T20:29:59.033Z,5.28
2022-12-12T20:32:25.657Z,5.11
2022-12-12T20:34:52.721Z,5.11
2022-12-12T20:37:20.355Z,5.08
2022-12-12T20:39:47.116Z,5.03
2022-12-12T20:42:13.636Z,5.07
2022-12-12T20:44:40.171Z,5.04
2022-12-12T20:47:07.969Z,5.10
2022-12-12T20:49:34.528Z,5.04
2022-12-12T20:52:01.055Z,4.81
2022-12-12T20:54:29.277Z,5.09
2022-12-12T20:56:57.613Z,5.06
2022-12-12T20:59:25.185Z,5.18
2022-12-12T21:01:52.377Z,5.17
2022-12-12T21:04:19.126Z,5.07
2022-12-12T21:06:51.029Z,5.04
2022-12-12T21:09:24.249Z,4.95
2022-12-12T21:11:58.149Z,4.99
2022-12-12T21:14:27.114Z,4.61
2022-12-12T21:16:54.252Z,4.76
2022-12-12T21:19:22.080Z,4.86
2022-12-12T21:21:49.099Z,4.78
2022-12-12T21:24:17.252Z,4.87
2022-12-12T21:26:44.680Z,4.98
2022-12-12T21:29:11.841Z,4.94
2022-12-12T21:31:48.173Z,4.78
2022-12-12T21:34:17.819Z,4.68
2022-12-12T21:36:44.650Z,4.88
2022-12-12T21:39:11.913Z,4.78
2022-12-12T21:41:41.476Z,4.92
2022-12-12T21:44:08.022Z,5.01
2022-12-12T21:46:34.633Z,4.97
2022-12-12T21:49:19.911Z,5.10
2022-12-12T21:51:46.802Z,5.09
2022-12-12T21:54:15.395Z,4.95
2022-12-12T21:56:42.831Z,4.94
2022-12-12T21:59:11.319Z,4.94
2022-12-12T22:01:38.212Z,4.95
2022-12-12T22:04:05.133Z,4.82
2022-12-12T22:06:34.688Z,5.02
2022-12-12T22:09:06.444Z,5.05
2022-12-12T22:11:46.890Z,4.86
2022-12-12T22:14:14.954Z,4.97
2022-12-12T22:16:41.604Z,5.10
2022-12-12T22:19:11.514Z,5.07
2022-12-12T22:21:38.304Z,5.12
2022-12-12T22:24:05.961Z,5.13
2022-12-12T22:26:34.268Z,5.13
2022-12-12T22:29:05.856Z,5.24
2022-12-12T22:31:35.722Z,5.21
2022-12-12T22:34:05.513Z,5.22
2022-12-12T22:36:37.028Z,5.30
2022-12-12T22:39:06.410Z,5.28
2022-12-12T22:41:33.169Z,5.28
2022-12-12T22:44:05.474Z,5.26
2022-12-12T22:46:32.733Z,5.40
2022-12-12T22:49:02.108Z,5.38
2022-12-12T22:51:31.606Z,5.43
2022-12-12T22:54:03.896Z,5.39
2022-12-12T22:56:33.636Z,5.43
2022-12-12T22:59:00.414Z,5.35
2022-12-12T23:01:28.505Z,5.47
2022-12-12T23:03:55.802Z,5.47
2022-12-12T23:06:31.555Z,5.54
2022-12-12T23:09:00.991Z,5.45
2022-12-12T23:11:29.167Z,5.40
2022-12-12T23:13:59.820Z,5.49
2022-12-12T23:16:27.650Z,5.47
2022-12-12T23:18:54.808Z,5.40
2022-12-12T23:21:23.420Z,5.37
2022-12-12T23:23:51.483Z,5.36
2022-12-12T23:26:21.230Z,5.43
2022-12-12T23:28:48.657Z,5.54
2022-12-12T23:31:24.371Z,5.51
2022-12-12T23:33:56.548Z,5.42
2022-12-12T23:36:23.987Z,5.41
2022-12-12T23:38:58.124Z,5.28
2022-12-12T23:41:25.577Z,5.27
2022-12-12T23:43:52.994Z,5.39
2022-12-12T23:46:29.382Z,5.39
2022-12-12T23:49:06.934Z,5.29
2022-12-12T23:51:36.759Z,5.24
2022-12-12T23:54:06.456Z,5.22
2022-12-12T23:56:33.413Z,5.26
2022-12-12T23:58:59.996Z,5.27
